sensor_id;sensor_type;location;lat;lon;timestamp;pressure;altitude;pressure_sealevel;temperature;humidity
59043;BME280;44826;51.596;5.624;2023-07-22T00:01:30;101298.75;;;15.65;65.94
59043;BME280;44826;51.596;5.624;2023-07-22T00:03:56;101296.22;;;15.63;65.85
59043;BME280;44826;51.596;5.624;2023-07-22T00:06:21;101293.59;;;15.63;66.33
59043;BME280;44826;51.596;5.624;2023-07-22T00:08:47;101295.34;;;15.63;66.34
59043;BME280;44826;51.596;5.624;2023-07-22T00:11:12;101304.09;;;15.63;65.76
59043;BME280;44826;51.596;5.624;2023-07-22T00:13:37;101306.59;;;15.67;65.86
59043;BME280;44826;51.596;5.624;2023-07-22T00:16:02;101305.69;;;15.68;65.96
59043;BME280;44826;51.596;5.624;2023-07-22T00:18:29;101303.97;;;15.67;65.85
59043;BME280;44826;51.596;5.624;2023-07-22T00:20:56;101297.81;;;15.68;65.82
59043;BME280;44826;51.596;5.624;2023-07-22T00:23:21;101300.44;;;15.68;65.88
59043;BME280;44826;51.596;5.624;2023-07-22T00:25:47;101296.94;;;15.67;65.96
59043;BME280;44826;51.596;5.624;2023-07-22T00:28:13;101296.09;;;15.67;66.03
59043;BME280;44826;51.596;5.624;2023-07-22T00:30:38;101293.47;;;15.67;65.93
59043;BME280;44826;51.596;5.624;2023-07-22T00:33:04;101296.91;;;15.69;66.01
59043;BME280;44826;51.596;5.624;2023-07-22T00:35:29;101292.50;;;15.69;65.91
59043;BME280;44826;51.596;5.624;2023-07-22T00:37:54;101293.34;;;15.70;66.26
59043;BME280;44826;51.596;5.624;2023-07-22T00:40:20;101295.06;;;15.71;65.85
59043;BME280;44826;51.596;5.624;2023-07-22T00:42:45;101297.63;;;15.72;66.28
59043;BME280;44826;51.596;5.624;2023-07-22T00:45:11;101295.00;;;15.72;65.83
59043;BME280;44826;51.596;5.624;2023-07-22T00:47:38;101296.75;;;15.72;65.97
59043;BME280;44826;51.596;5.624;2023-07-22T00:50:04;101296.63;;;15.75;65.80
59043;BME280;44826;51.596;5.624;2023-07-22T00:52:32;101298.34;;;15.76;65.99
59043;BME280;44826;51.596;5.624;2023-07-22T00:54:57;101296.50;;;15.78;67.47
59043;BME280;44826;51.596;5.624;2023-07-22T00:57:23;101291.34;;;15.76;67.70
59043;BME280;44826;51.596;5.624;2023-07-22T00:59:48;101288.72;;;15.76;67.43
59043;BME280;44826;51.596;5.624;2023-07-22T01:02:14;101275.63;;;15.75;68.14
59043;BME280;44826;51.596;5.624;2023-07-22T01:04:39;101287.06;;;15.74;68.09
59043;BME280;44826;51.596;5.624;2023-07-22T01:07:05;101289.81;;;15.71;68.93
59043;BME280;44826;51.596;5.624;2023-07-22T01:09:42;101282.91;;;15.68;68.22
59043;BME280;44826;51.596;5.624;2023-07-22T01:12:08;101283.09;;;15.63;69.17
59043;BME280;44826;51.596;5.624;2023-07-22T01:14:35;101278.84;;;15.61;69.79
59043;BME280;44826;51.596;5.624;2023-07-22T01:17:05;101280.72;;;15.57;69.75
59043;BME280;44826;51.596;5.624;2023-07-22T01:19:32;101274.66;;;15.55;69.84
59043;BME280;44826;51.596;5.624;2023-07-22T01:22:00;101269.56;;;15.52;69.87
59043;BME280;44826;51.596;5.624;2023-07-22T01:24:26;101273.94;;;15.52;69.59
59043;BME280;44826;51.596;5.624;2023-07-22T01:26:52;101271.44;;;15.48;69.68
59043;BME280;44826;51.596;5.624;2023-07-22T01:29:17;101264.47;;;15.47;69.42
59043;BME280;44826;51.596;5.624;2023-07-22T01:31:46;101270.72;;;15.45;69.60
59043;BME280;44826;51.596;5.624;2023-07-22T01:34:12;101261.13;;;15.44;69.69
59043;BME280;44826;51.596;5.624;2023-07-22T01:36:37;101275.16;;;15.43;69.85
59043;BME280;44826;51.596;5.624;2023-07-22T01:39:02;101266.50;;;15.41;69.75
59043;BME280;44826;51.596;5.624;2023-07-22T01:41:30;101264.78;;;15.40;69.50
59043;BME280;44826;51.596;5.624;2023-07-22T01:43:56;101262.25;;;15.38;69.21
59043;BME280;44826;51.596;5.624;2023-07-22T01:46:21;101256.13;;;15.38;69.25
59043;BME280;44826;51.596;5.624;2023-07-22T01:48:46;101256.13;;;15.38;69.52
59043;BME280;44826;51.596;5.624;2023-07-22T01:51:12;101257.97;;;15.36;69.60
59043;BME280;44826;51.596;5.624;2023-07-22T01:53:37;101252.75;;;15.36;69.52
59043;BME280;44826;51.596;5.624;2023-07-22T01:56:02;101257.19;;;15.33;69.54
59043;BME280;44826;51.596;5.624;2023-07-22T01:58:27;101258.94;;;15.33;69.89
59043;BME280;44826;51.596;5.624;2023-07-22T02:00:53;101251.16;;;15.31;69.77
59043;BME280;44826;51.596;5.624;2023-07-22T02:03:18;101251.16;;;15.31;69.71
59043;BME280;44826;51.596;5.624;2023-07-22T02:05:43;101252.09;;;15.29;70.05
59043;BME280;44826;51.596;5.624;2023-07-22T02:08:08;101253.81;;;15.30;70.29
59043;BME280;44826;51.596;5.624;2023-07-22T02:10:35;101261.66;;;15.30;70.31
59043;BME280;44826;51.596;5.624;2023-07-22T02:13:00;101255.59;;;15.29;70.28
59043;BME280;44826;51.596;5.624;2023-07-22T02:15:28;101259.06;;;15.30;70.37
59043;BME280;44826;51.596;5.624;2023-07-22T02:17:53;101254.72;;;15.29;69.84
59043;BME280;44826;51.596;5.624;2023-07-22T02:20:20;101252.16;;;15.27;70.68
59043;BME280;44826;51.596;5.624;2023-07-22T02:22:45;101253.09;;;15.26;70.51
59043;BME280;44826;51.596;5.624;2023-07-22T02:25:10;101250.47;;;15.26;70.98
59043;BME280;44826;51.596;5.624;2023-07-22T02:27:36;101242.59;;;15.26;70.87
59043;BME280;44826;51.596;5.624;2023-07-22T02:30:02;101243.50;;;15.25;71.34
59043;BME280;44826;51.596;5.624;2023-07-22T02:32:29;101240.06;;;15.25;71.39
59043;BME280;44826;51.596;5.624;2023-07-22T02:34:54;101241.00;;;15.22;71.50
59043;BME280;44826;51.596;5.624;2023-07-22T02:37:20;101241.97;;;15.20;71.21
59043;BME280;44826;51.596;5.624;2023-07-22T02:39:45;101239.47;;;15.16;72.04
59043;BME280;44826;51.596;5.624;2023-07-22T02:42:10;101244.00;;;15.13;71.25
59043;BME280;44826;51.596;5.624;2023-07-22T02:44:36;101242.34;;;15.10;71.67
59043;BME280;44826;51.596;5.624;2023-07-22T02:47:01;101236.31;;;15.08;71.37
59043;BME280;44826;51.596;5.624;2023-07-22T02:49:27;101239.78;;;15.09;71.07
59043;BME280;44826;51.596;5.624;2023-07-22T02:51:52;101233.81;;;15.05;71.08
59043;BME280;44826;51.596;5.624;2023-07-22T02:54:17;101237.44;;;15.01;70.93
59043;BME280;44826;51.596;5.624;2023-07-22T02:56:42;101241.06;;;14.98;70.81
59043;BME280;44826;51.596;5.624;2023-07-22T02:59:09;101239.44;;;14.94;71.00
59043;BME280;44826;51.596;5.624;2023-07-22T03:01:34;101245.66;;;14.92;71.15
59043;BME280;44826;51.596;5.624;2023-07-22T03:04:00;101247.53;;;14.88;70.87
59043;BME280;44826;51.596;5.624;2023-07-22T03:06:25;101242.44;;;14.85;71.04
59043;BME280;44826;51.596;5.624;2023-07-22T03:08:51;101244.28;;;14.81;71.11
59043;BME280;44826;51.596;5.624;2023-07-22T03:11:16;101246.19;;;14.78;71.25
59043;BME280;44826;51.596;5.624;2023-07-22T03:13:42;101245.38;;;14.76;71.13
59043;BME280;44826;51.596;5.624;2023-07-22T03:16:08;101242.84;;;14.72;71.29
59043;BME280;44826;51.596;5.624;2023-07-22T03:18:33;101244.69;;;14.70;71.47
59043;BME280;44826;51.596;5.624;2023-07-22T03:20:59;101254.31;;;14.70;71.42
59043;BME280;44826;51.596;5.624;2023-07-22T03:23:24;101258.78;;;14.66;71.54
59043;BME280;44826;51.596;5.624;2023-07-22T03:25:49;101257.06;;;14.65;71.73
59043;BME280;44826;51.596;5.624;2023-07-22T03:28:15;101258.88;;;14.63;71.60
59043;BME280;44826;51.596;5.624;2023-07-22T03:30:41;101266.03;;;14.58;71.59
59043;BME280;44826;51.596;5.624;2023-07-22T03:33:07;101254.78;;;14.56;71.75
59043;BME280;44826;51.596;5.624;2023-07-22T03:35:33;101264.41;;;14.55;72.37
59043;BME280;44826;51.596;5.624;2023-07-22T03:37:59;101262.72;;;14.53;72.19
59043;BME280;44826;51.596;5.624;2023-07-22T03:40:24;101268.84;;;14.53;72.41
59043;BME280;44826;51.596;5.624;2023-07-22T03:42:55;101269.81;;;14.51;72.42
59043;BME280;44826;51.596;5.624;2023-07-22T03:45:21;101261.97;;;14.51;72.51
59043;BME280;44826;51.596;5.624;2023-07-22T03:47:49;101266.38;;;14.49;72.54
59043;BME280;44826;51.596;5.624;2023-07-22T03:50:14;101263.78;;;14.49;72.34
59043;BME280;44826;51.596;5.624;2023-07-22T03:52:40;101255.16;;;14.45;72.26
59043;BME280;44826;51.596;5.624;2023-07-22T03:55:05;101259.66;;;14.41;72.55
59043;BME280;44826;51.596;5.624;2023-07-22T03:57:31;101256.31;;;14.36;72.81
59043;BME280;44826;51.596;5.624;2023-07-22T03:59:57;101257.38;;;14.32;72.96
59043;BME280;44826;51.596;5.624;2023-07-22T04:02:22;101262.72;;;14.27;73.07
59043;BME280;44826;51.596;5.624;2023-07-22T04:04:48;101260.19;;;14.26;73.49
59043;BME280;44826;51.596;5.624;2023-07-22T04:07:13;101263.72;;;14.25;73.42
59043;BME280;44826;51.596;5.624;2023-07-22T04:09:40;101258.56;;;14.22;73.65
59043;BME280;44826;51.596;5.624;2023-07-22T04:12:06;101257.72;;;14.21;73.67
59043;BME280;44826;51.596;5.624;2023-07-22T04:14:31;101252.53;;;14.20;73.70
59043;BME280;44826;51.596;5.624;2023-07-22T04:16:57;101256.97;;;14.18;73.88
59043;BME280;44826;51.596;5.624;2023-07-22T04:19:22;101263.13;;;14.17;73.99
59043;BME280;44826;51.596;5.624;2023-07-22T04:21:47;101258.00;;;14.14;74.16
59043;BME280;44826;51.596;5.624;2023-07-22T04:24:13;101264.13;;;14.13;74.13
59043;BME280;44826;51.596;5.624;2023-07-22T04:26:40;101262.44;;;14.11;74.07
59043;BME280;44826;51.596;5.624;2023-07-22T04:29:05;101262.44;;;14.11;74.36
59043;BME280;44826;51.596;5.624;2023-07-22T04:31:30;101262.44;;;14.11;74.64
59043;BME280;44826;51.596;5.624;2023-07-22T04:33:57;101268.50;;;14.12;74.34
59043;BME280;44826;51.596;5.624;2023-07-22T04:36:22;101265.03;;;14.11;74.38
59043;BME280;44826;51.596;5.624;2023-07-22T04:38:47;101269.38;;;14.13;74.58
59043;BME280;44826;51.596;5.624;2023-07-22T04:41:13;101264.97;;;14.13;74.71
59043;BME280;44826;51.596;5.624;2023-07-22T04:43:38;101271.13;;;14.12;74.51
59043;BME280;44826;51.596;5.624;2023-07-22T04:46:05;101267.66;;;14.11;74.81
59043;BME280;44826;51.596;5.624;2023-07-22T04:48:30;101267.59;;;14.13;74.76
59043;BME280;44826;51.596;5.624;2023-07-22T04:50:56;101264.06;;;14.14;75.13
59043;BME280;44826;51.596;5.624;2023-07-22T04:53:22;101267.50;;;14.16;75.02
59043;BME280;44826;51.596;5.624;2023-07-22T04:55:47;101268.31;;;14.18;74.96
59043;BME280;44826;51.596;5.624;2023-07-22T04:58:12;101269.09;;;14.20;75.14
59043;BME280;44826;51.596;5.624;2023-07-22T05:00:38;101276.00;;;14.23;75.22
59043;BME280;44826;51.596;5.624;2023-07-22T05:03:04;101280.28;;;14.25;75.45
59043;BME280;44826;51.596;5.624;2023-07-22T05:05:29;101272.38;;;14.27;75.03
59043;BME280;44826;51.596;5.624;2023-07-22T05:07:55;101270.56;;;14.29;75.26
59043;BME280;44826;51.596;5.624;2023-07-22T05:10:20;101277.41;;;14.33;75.14
59043;BME280;44826;51.596;5.624;2023-07-22T05:12:46;101273.75;;;14.37;74.80
59043;BME280;44826;51.596;5.624;2023-07-22T05:15:12;101272.81;;;14.40;75.07
59043;BME280;44826;51.596;5.624;2023-07-22T05:17:38;101280.50;;;14.45;74.92
59043;BME280;44826;51.596;5.624;2023-07-22T05:20:04;101285.63;;;14.48;74.79
59043;BME280;44826;51.596;5.624;2023-07-22T05:22:38;101282.91;;;14.51;75.24
59043;BME280;44826;51.596;5.624;2023-07-22T05:25:04;101276.72;;;14.52;75.18
59043;BME280;44826;51.596;5.624;2023-07-22T05:27:30;101278.41;;;14.54;75.39
59043;BME280;44826;51.596;5.624;2023-07-22T05:29:55;101279.94;;;14.60;75.55
59043;BME280;44826;51.596;5.624;2023-07-22T05:32:21;101271.97;;;14.63;75.06
59043;BME280;44826;51.596;5.624;2023-07-22T05:34:46;101274.59;;;14.63;75.71
59043;BME280;44826;51.596;5.624;2023-07-22T05:37:11;101271.06;;;14.64;75.85
59043;BME280;44826;51.596;5.624;2023-07-22T05:39:38;101279.75;;;14.66;75.69
59043;BME280;44826;51.596;5.624;2023-07-22T05:42:03;101285.81;;;14.68;75.55
59043;BME280;44826;51.596;5.624;2023-07-22T05:44:29;101282.16;;;14.72;75.48
59043;BME280;44826;51.596;5.624;2023-07-22T05:46:54;101273.22;;;14.78;75.48
59043;BME280;44826;51.596;5.624;2023-07-22T05:49:20;101279.09;;;14.85;75.55
59043;BME280;44826;51.596;5.624;2023-07-22T05:51:45;101271.81;;;14.93;75.91
59043;BME280;44826;51.596;5.624;2023-07-22T05:54:11;101274.19;;;14.99;75.43
59043;BME280;44826;51.596;5.624;2023-07-22T05:56:36;101279.25;;;15.04;75.62
59043;BME280;44826;51.596;5.624;2023-07-22T05:59:01;101276.41;;;15.10;75.15
59043;BME280;44826;51.596;5.624;2023-07-22T06:01:26;101266.56;;;15.17;75.51
59043;BME280;44826;51.596;5.624;2023-07-22T06:03:52;101262.84;;;15.23;75.00
59043;BME280;44826;51.596;5.624;2023-07-22T06:06:18;101259.13;;;15.28;75.55
59043;BME280;44826;51.596;5.624;2023-07-22T06:08:44;101262.44;;;15.33;74.74
59043;BME280;44826;51.596;5.624;2023-07-22T06:11:09;101263.94;;;15.39;74.71
59043;BME280;44826;51.596;5.624;2023-07-22T06:13:35;101263.75;;;15.44;76.22
59043;BME280;44826;51.596;5.624;2023-07-22T06:16:00;101260.13;;;15.48;74.31
59043;BME280;44826;51.596;5.624;2023-07-22T06:18:25;101259.19;;;15.49;74.90
59043;BME280;44826;51.596;5.624;2023-07-22T06:20:51;101262.47;;;15.54;75.17
59043;BME280;44826;51.596;5.624;2023-07-22T06:23:16;101265.78;;;15.59;73.95
59043;BME280;44826;51.596;5.624;2023-07-22T06:25:41;101257.72;;;15.64;74.24
59043;BME280;44826;51.596;5.624;2023-07-22T06:28:08;101259.25;;;15.70;74.27
59043;BME280;44826;51.596;5.624;2023-07-22T06:30:33;101263.41;;;15.75;74.38
59043;BME280;44826;51.596;5.624;2023-07-22T06:32:58;101257.03;;;15.81;74.43
59043;BME280;44826;51.596;5.624;2023-07-22T06:35:24;101264.84;;;15.83;74.04
59043;BME280;44826;51.596;5.624;2023-07-22T06:37:49;101254.22;;;15.87;74.40
59043;BME280;44826;51.596;5.624;2023-07-22T06:40:14;101259.44;;;15.87;73.71
59043;BME280;44826;51.596;5.624;2023-07-22T06:42:39;101254.22;;;15.87;75.03
59043;BME280;44826;51.596;5.624;2023-07-22T06:45:05;101250.50;;;15.91;74.29
59043;BME280;44826;51.596;5.624;2023-07-22T06:47:31;101250.38;;;15.95;74.29
59043;BME280;44826;51.596;5.624;2023-07-22T06:49:56;101245.03;;;15.98;74.90
59043;BME280;44826;51.596;5.624;2023-07-22T06:52:22;101243.31;;;15.97;75.04
59043;BME280;44826;51.596;5.624;2023-07-22T06:54:47;101241.47;;;15.99;74.60
59043;BME280;44826;51.596;5.624;2023-07-22T06:57:13;101235.97;;;16.05;74.95
59043;BME280;44826;51.596;5.624;2023-07-22T06:59:38;101231.25;;;16.13;74.63
59043;BME280;44826;51.596;5.624;2023-07-22T07:02:04;101230.00;;;16.22;74.93
59043;BME280;44826;51.596;5.624;2023-07-22T07:04:30;101227.81;;;16.32;74.46
59043;BME280;44826;51.596;5.624;2023-07-22T07:06:55;101228.41;;;16.38;73.71
59043;BME280;44826;51.596;5.624;2023-07-22T07:09:21;101230.63;;;16.48;74.47
59043;BME280;44826;51.596;5.624;2023-07-22T07:11:46;101234.69;;;16.55;74.43
59043;BME280;44826;51.596;5.624;2023-07-22T07:14:12;101238.75;;;16.62;73.98
59043;BME280;44826;51.596;5.624;2023-07-22T07:16:37;101235.78;;;16.70;72.99
59043;BME280;44826;51.596;5.624;2023-07-22T07:19:03;101234.56;;;16.77;73.69
59043;BME280;44826;51.596;5.624;2023-07-22T07:21:28;101243.22;;;16.79;73.47
59043;BME280;44826;51.596;5.624;2023-07-22T07:23:54;101244.94;;;16.80;72.35
59043;BME280;44826;51.596;5.624;2023-07-22T07:26:20;101232.81;;;16.78;72.70
59043;BME280;44826;51.596;5.624;2023-07-22T07:28:46;101240.69;;;16.78;72.84
59043;BME280;44826;51.596;5.624;2023-07-22T07:31:12;101243.94;;;16.83;73.24
59043;BME280;44826;51.596;5.624;2023-07-22T07:33:37;101237.63;;;16.87;72.96
59043;BME280;44826;51.596;5.624;2023-07-22T07:36:02;101243.59;;;16.91;73.09
59043;BME280;44826;51.596;5.624;2023-07-22T07:38:28;101238.16;;;16.95;72.24
59043;BME280;44826;51.596;5.624;2023-07-22T07:41:06;101242.34;;;16.99;72.82
59043;BME280;44826;51.596;5.624;2023-07-22T07:43:34;101241.22;;;17.05;73.08
59043;BME280;44826;51.596;5.624;2023-07-22T07:46:32;101237.44;;;17.11;72.32
59043;BME280;44826;51.596;5.624;2023-07-22T07:48:59;101235.53;;;17.14;72.12
59043;BME280;44826;51.596;5.624;2023-07-22T07:51:26;101245.09;;;17.16;72.08
59043;BME280;44826;51.596;5.624;2023-07-22T07:53:53;101238.84;;;17.18;71.85
59043;BME280;44826;51.596;5.624;2023-07-22T07:56:19;101248.31;;;17.22;71.91
59043;BME280;44826;51.596;5.624;2023-07-22T07:58:45;101241.28;;;17.23;71.53
59043;BME280;44826;51.596;5.624;2023-07-22T08:01:11;101239.44;;;17.25;71.92
59043;BME280;44826;51.596;5.624;2023-07-22T08:03:37;101241.09;;;17.26;72.38
59043;BME280;44826;51.596;5.624;2023-07-22T08:06:03;101246.19;;;17.31;71.80
59043;BME280;44826;51.596;5.624;2023-07-22T08:08:29;101242.53;;;17.33;71.90
59043;BME280;44826;51.596;5.624;2023-07-22T08:11:02;101254.38;;;17.42;72.44
59043;BME280;44826;51.596;5.624;2023-07-22T08:13:28;101250.31;;;17.54;71.60
59043;BME280;44826;51.596;5.624;2023-07-22T08:15:55;101250.59;;;17.67;70.70
59043;BME280;44826;51.596;5.624;2023-07-22T08:18:20;101251.91;;;17.75;71.36
59043;BME280;44826;51.596;5.624;2023-07-22T08:20:45;101247.25;;;17.81;70.34
59043;BME280;44826;51.596;5.624;2023-07-22T08:23:12;101240.91;;;17.85;70.77
59043;BME280;44826;51.596;5.624;2023-07-22T08:25:38;101251.19;;;17.89;70.18
59043;BME280;44826;51.596;5.624;2023-07-22T08:28:03;101245.53;;;17.97;69.46
59043;BME280;44826;51.596;5.624;2023-07-22T08:30:30;101244.34;;;18.04;68.14
59043;BME280;44826;51.596;5.624;2023-07-22T08:32:56;101244.88;;;18.11;68.28
59043;BME280;44826;51.596;5.624;2023-07-22T08:35:21;101245.56;;;18.15;67.97
59043;BME280;44826;51.596;5.624;2023-07-22T08:37:47;101254.25;;;18.17;67.51
59043;BME280;44826;51.596;5.624;2023-07-22T08:40:13;101252.53;;;18.16;66.06
59043;BME280;44826;51.596;5.624;2023-07-22T08:42:38;101249.91;;;18.16;65.58
59043;BME280;44826;51.596;5.624;2023-07-22T08:45:05;101253.47;;;18.15;65.77
59043;BME280;44826;51.596;5.624;2023-07-22T08:47:34;101256.81;;;18.18;64.78
59043;BME280;44826;51.596;5.624;2023-07-22T08:50:01;101250.28;;;18.26;64.74
59043;BME280;44826;51.596;5.624;2023-07-22T08:52:27;101247.00;;;18.38;65.45
59043;BME280;44826;51.596;5.624;2023-07-22T08:54:54;101244.84;;;18.46;65.08
59043;BME280;44826;51.596;5.624;2023-07-22T08:57:20;101250.53;;;18.55;64.84
59043;BME280;44826;51.596;5.624;2023-07-22T08:59:45;101247.50;;;18.62;63.74
59043;BME280;44826;51.596;5.624;2023-07-22T09:02:12;101246.25;;;18.70;63.24
59043;BME280;44826;51.596;5.624;2023-07-22T09:04:39;101245.56;;;18.82;62.64
59043;BME280;44826;51.596;5.624;2023-07-22T09:07:08;101249.22;;;18.97;62.61
59043;BME280;44826;51.596;5.624;2023-07-22T09:09:34;101240.72;;;19.08;60.80
59043;BME280;44826;51.596;5.624;2023-07-22T09:12:00;101244.78;;;19.14;60.72
59043;BME280;44826;51.596;5.624;2023-07-22T09:14:36;101250.56;;;19.20;60.48
59043;BME280;44826;51.596;5.624;2023-07-22T09:17:04;101254.75;;;19.24;58.24
59043;BME280;44826;51.596;5.624;2023-07-22T09:19:30;101249.53;;;19.23;59.51
59043;BME280;44826;51.596;5.624;2023-07-22T09:21:55;101252.88;;;19.26;59.81
59043;BME280;44826;51.596;5.624;2023-07-22T09:24:23;101246.47;;;19.31;58.76
59043;BME280;44826;51.596;5.624;2023-07-22T09:26:48;101244.59;;;19.33;58.18
59043;BME280;44826;51.596;5.624;2023-07-22T09:29:14;101248.16;;;19.32;57.29
59043;BME280;44826;51.596;5.624;2023-07-22T09:31:51;101242.22;;;19.28;58.61
59043;BME280;44826;51.596;5.624;2023-07-22T09:34:16;101244.97;;;19.26;56.12
59043;BME280;44826;51.596;5.624;2023-07-22T09:36:56;101243.94;;;19.29;57.62
59043;BME280;44826;51.596;5.624;2023-07-22T09:39:22;101243.94;;;19.29;55.97
59043;BME280;44826;51.596;5.624;2023-07-22T09:41:48;101239.31;;;19.33;56.70
59043;BME280;44826;51.596;5.624;2023-07-22T09:44:13;101227.31;;;19.43;57.38
59043;BME280;44826;51.596;5.624;2023-07-22T09:46:39;101226.03;;;19.50;56.56
59043;BME280;44826;51.596;5.624;2023-07-22T09:49:07;101232.72;;;19.56;56.28
59043;BME280;44826;51.596;5.624;2023-07-22T09:51:37;101227.72;;;19.51;56.25
59043;BME280;44826;51.596;5.624;2023-07-22T09:54:04;101228.75;;;19.49;56.64
59043;BME280;44826;51.596;5.624;2023-07-22T09:56:30;101220.91;;;19.47;56.73
59043;BME280;44826;51.596;5.624;2023-07-22T09:58:58;101230.47;;;19.50;57.88
59043;BME280;44826;51.596;5.624;2023-07-22T10:01:25;101226.50;;;19.57;57.36
59043;BME280;44826;51.596;5.624;2023-07-22T10:03:54;101226.06;;;19.65;57.58
59043;BME280;44826;51.596;5.624;2023-07-22T10:06:30;101224.97;;;19.69;57.60
59043;BME280;44826;51.596;5.624;2023-07-22T10:09:02;101231.75;;;19.73;56.37
59043;BME280;44826;51.596;5.624;2023-07-22T10:11:35;101220.84;;;19.79;56.64
59043;BME280;44826;51.596;5.624;2023-07-22T10:14:04;101235.50;;;19.85;56.19
59043;BME280;44826;51.596;5.624;2023-07-22T10:16:30;101229.34;;;19.84;56.73
59043;BME280;44826;51.596;5.624;2023-07-22T10:18:56;101228.34;;;19.87;55.49
59043;BME280;44826;51.596;5.624;2023-07-22T10:21:22;101227.47;;;19.86;56.65
59043;BME280;44826;51.596;5.624;2023-07-22T10:23:49;101237.13;;;19.88;57.09
59043;BME280;44826;51.596;5.624;2023-07-22T10:26:16;101223.91;;;19.88;56.94
59043;BME280;44826;51.596;5.624;2023-07-22T10:28:44;101224.56;;;19.91;56.25
59043;BME280;44826;51.596;5.624;2023-07-22T10:31:09;101228.84;;;19.94;56.19
59043;BME280;44826;51.596;5.624;2023-07-22T10:33:35;101223.88;;;20.04;56.71
59043;BME280;44826;51.596;5.624;2023-07-22T10:38:30;101219.25;;;20.22;56.23
59043;BME280;44826;51.596;5.624;2023-07-22T10:40:56;101219.44;;;20.33;56.37
59043;BME280;44826;51.596;5.624;2023-07-22T10:43:32;101232.88;;;20.44;56.81
59043;BME280;44826;51.596;5.624;2023-07-22T10:46:10;101229.94;;;20.49;54.86
59043;BME280;44826;51.596;5.624;2023-07-22T10:48:38;101226.47;;;20.49;55.29
59043;BME280;44826;51.596;5.624;2023-07-22T10:53:32;101204.91;;;20.40;54.65
59043;BME280;44826;51.596;5.624;2023-07-22T11:01:44;101210.38;;;20.37;55.97
59043;BME280;44826;51.596;5.624;2023-07-22T11:12:13;101215.66;;;20.52;53.55
59043;BME280;44826;51.596;5.624;2023-07-22T11:14:48;101212.19;;;20.51;52.55
59043;BME280;44826;51.596;5.624;2023-07-22T11:17:14;101211.13;;;20.54;51.81
59043;BME280;44826;51.596;5.624;2023-07-22T11:19:40;101211.91;;;20.56;51.80
59043;BME280;44826;51.596;5.624;2023-07-22T11:22:05;101199.25;;;20.61;50.87
59043;BME280;44826;51.596;5.624;2023-07-22T11:24:33;101198.78;;;20.69;51.05
59043;BME280;44826;51.596;5.624;2023-07-22T11:27:03;101200.78;;;20.80;50.37
59043;BME280;44826;51.596;5.624;2023-07-22T11:29:31;101192.84;;;20.80;50.06
59043;BME280;44826;51.596;5.624;2023-07-22T11:31:57;101187.25;;;20.84;49.93
59043;BME280;44826;51.596;5.624;2023-07-22T11:34:23;101187.81;;;20.89;50.01
59043;BME280;44826;51.596;5.624;2023-07-22T11:36:50;101200.94;;;20.91;48.21
59043;BME280;44826;51.596;5.624;2023-07-22T11:39:38;101196.59;;;20.90;50.35
59043;BME280;44826;51.596;5.624;2023-07-22T11:42:06;101196.69;;;20.88;47.52
59043;BME280;44826;51.596;5.624;2023-07-22T11:44:39;101198.47;;;20.88;48.52
59043;BME280;44826;51.596;5.624;2023-07-22T11:47:07;101193.75;;;20.93;48.36
59043;BME280;44826;51.596;5.624;2023-07-22T11:49:41;101183.28;;;20.91;47.46
59043;BME280;44826;51.596;5.624;2023-07-22T11:52:17;101173.53;;;20.92;49.21
59043;BME280;44826;51.596;5.624;2023-07-22T11:54:45;101177.78;;;20.95;47.91
59043;BME280;44826;51.596;5.624;2023-07-22T11:57:13;101180.13;;;20.99;47.25
59043;BME280;44826;51.596;5.624;2023-07-22T11:59:43;101185.22;;;21.02;47.94
59043;BME280;44826;51.596;5.624;2023-07-22T12:02:15;101184.06;;;21.06;47.62
59043;BME280;44826;51.596;5.624;2023-07-22T12:04:42;101182.38;;;21.05;47.34
59043;BME280;44826;51.596;5.624;2023-07-22T12:07:24;101179.53;;;21.08;49.09
59043;BME280;44826;51.596;5.624;2023-07-22T12:09:51;101183.47;;;21.16;48.70
59043;BME280;44826;51.596;5.624;2023-07-22T12:15:59;101174.84;;;21.40;48.81
59043;BME280;44826;51.596;5.624;2023-07-22T12:18:47;101157.84;;;21.44;48.06
59043;BME280;44826;51.596;5.624;2023-07-22T12:21:31;101168.41;;;21.44;47.25
59043;BME280;44826;51.596;5.624;2023-07-22T12:23:57;101168.75;;;21.39;46.50
59043;BME280;44826;51.596;5.624;2023-07-22T12:26:32;101161.00;;;21.36;47.55
59043;BME280;44826;51.596;5.624;2023-07-22T12:29:00;101163.75;;;21.34;47.47
59043;BME280;44826;51.596;5.624;2023-07-22T12:31:25;101152.94;;;21.37;47.09
59043;BME280;44826;51.596;5.624;2023-07-22T12:33:55;101163.31;;;21.41;45.89
59043;BME280;44826;51.596;5.624;2023-07-22T12:36:21;101155.94;;;21.46;45.48
59043;BME280;44826;51.596;5.624;2023-07-22T12:38:46;101143.97;;;21.53;45.13
59043;BME280;44826;51.596;5.624;2023-07-22T12:41:11;101148.31;;;21.54;45.43
59043;BME280;44826;51.596;5.624;2023-07-22T12:43:37;101152.56;;;21.57;45.37
59043;BME280;44826;51.596;5.624;2023-07-22T12:46:02;101146.53;;;21.55;44.60
59043;BME280;44826;51.596;5.624;2023-07-22T12:48:27;101146.72;;;21.51;45.36
59043;BME280;44826;51.596;5.624;2023-07-22T12:50:53;101139.84;;;21.49;45.79
59043;BME280;44826;51.596;5.624;2023-07-22T12:53:18;101143.00;;;21.54;46.47
59043;BME280;44826;51.596;5.624;2023-07-22T12:55:43;101147.28;;;21.57;45.26
59043;BME280;44826;51.596;5.624;2023-07-22T12:58:08;101141.97;;;21.57;44.75
59043;BME280;44826;51.596;5.624;2023-07-22T13:00:34;101146.63;;;21.53;45.05
59043;BME280;44826;51.596;5.624;2023-07-22T13:02:59;101141.56;;;21.50;44.05
59043;BME280;44826;51.596;5.624;2023-07-22T13:05:24;101141.94;;;21.44;44.19
59043;BME280;44826;51.596;5.624;2023-07-22T13:07:50;101139.81;;;21.36;44.56
59043;BME280;44826;51.596;5.624;2023-07-22T13:10:15;101139.81;;;21.36;44.66